createdAt,value
2022-12-25T00:04:36.121Z,6.01
2022-12-25T00:09:36.141Z,6.18
2022-12-25T00:14:35.937Z,5.88
2022-12-25T00:21:07.324Z,5.41
2022-12-25T00:26:07.128Z,5.85
2022-12-25T00:31:07.217Z,5.68
2022-12-25T00:36:07.064Z,6.13
2022-12-25T00:41:08.646Z,6.48
2022-12-25T00:46:07.125Z,6.53
2022-12-25T00:51:06.937Z,6.51
2022-12-25T00:56:06.908Z,6.26
2022-12-25T01:01:06.828Z,5.81
2022-12-25T01:06:06.757Z,5.50
2022-12-25T01:11:09.645Z,5.02
2022-12-25T01:16:06.565Z,4.79
2022-12-25T01:21:06.557Z,5.28
2022-12-25T01:26:06.580Z,5.40
2022-12-25T01:31:06.495Z,5.28
2022-12-25T01:36:06.269Z,5.53
2022-12-25T01:41:06.197Z,5.01
2022-12-25T01:46:06.158Z,4.57
2022-12-25T01:51:07.359Z,4.99
2022-12-25T01:56:05.958Z,5.19
2022-12-25T02:01:06.149Z,4.73
2022-12-25T02:06:05.713Z,4.51
2022-12-25T02:11:08.723Z,4.62
2022-12-25T02:16:05.850Z,4.58
2022-12-25T02:21:07.478Z,5.13
2022-12-25T02:26:05.519Z,4.83
2022-12-25T02:31:05.589Z,4.92
2022-12-25T02:36:05.335Z,5.14
2022-12-25T02:41:05.475Z,5.46
2022-12-25T02:46:15.553Z,5.12
2022-12-25T02:51:05.305Z,5.35
2022-12-25T02:57:34.640Z,5.17
2022-12-25T03:04:19.097Z,4.46
2022-12-25T03:09:19.066Z,4.76
2022-12-25T03:14:19.111Z,5.05
2022-12-25T03:26:45.977Z,6.01
2022-12-25T03:31:45.722Z,5.48
2022-12-25T03:36:46.468Z,5.89
2022-12-25T03:41:45.506Z,5.86
2022-12-25T03:46:45.595Z,5.73
2022-12-25T03:51:45.426Z,5.93
2022-12-25T03:56:45.426Z,5.38
2022-12-25T04:01:45.358Z,4.95
2022-12-25T04:06:46.612Z,4.64
2022-12-25T04:11:45.133Z,5.19
2022-12-25T04:16:48.249Z,5.66
2022-12-25T04:21:45.127Z,5.52
2022-12-25T04:26:45.070Z,4.95
2022-12-25T04:31:44.988Z,5.41
2022-12-25T04:36:44.942Z,5.07
2022-12-25T04:41:44.884Z,5.50
2022-12-25T04:53:29.656Z,5.37
2022-12-25T04:58:29.376Z,5.46
2022-12-25T05:03:29.417Z,5.17
2022-12-25T05:08:29.223Z,5.23
2022-12-25T05:13:29.919Z,5.40
2022-12-25T05:18:29.098Z,5.45
2022-12-25T05:23:29.112Z,5.02
2022-12-25T05:28:29.227Z,4.88
2022-12-25T05:33:29.184Z,5.59
2022-12-25T05:38:28.986Z,5.48
2022-12-25T05:43:39.910Z,5.77
2022-12-25T05:50:44.901Z,5.01
2022-12-25T05:55:44.727Z,5.41
2022-12-25T06:00:44.721Z,4.62
2022-12-25T06:05:44.727Z,5.27
2022-12-25T06:10:44.484Z,5.46
2022-12-25T06:15:44.493Z,4.96
2022-12-25T06:20:44.972Z,4.76
2022-12-25T06:25:44.229Z,5.07
2022-12-25T06:30:44.282Z,5.27
2022-12-25T06:35:44.203Z,5.53
2022-12-25T06:40:47.189Z,5.74
2022-12-25T06:45:44.155Z,5.32
2022-12-25T06:50:44.216Z,5.74
2022-12-25T06:55:43.912Z,5.53
2022-12-25T07:00:43.967Z,5.43
2022-12-25T07:05:43.691Z,5.89
2022-12-25T07:10:43.670Z,6.09
2022-12-25T07:15:43.552Z,6.03
2022-12-25T07:20:43.875Z,6.11
2022-12-25T07:25:43.668Z,6.29
2022-12-25T07:30:44.078Z,5.73
2022-12-25T07:35:43.326Z,6.00
2022-12-25T07:40:46.305Z,6.40
2022-12-25T07:45:43.334Z,6.22
2022-12-25T07:50:43.422Z,6.62
2022-12-25T07:55:43.178Z,6.61
2022-12-25T08:00:43.061Z,6.80
2022-12-25T08:05:42.989Z,6.86
2022-12-25T08:10:42.972Z,7.01
2022-12-25T08:15:50.428Z,7.34
2022-12-25T08:20:42.730Z,7.19
2022-12-25T08:25:42.933Z,7.24
2022-12-25T08:30:49.907Z,7.67
2022-12-25T08:37:00.341Z,7.27
2022-12-25T08:43:18.334Z,7.45
2022-12-25T08:48:25.756Z,7.62
2022-12-25T08:53:18.073Z,7.74
2022-12-25T08:58:17.961Z,7.96
2022-12-25T09:03:30.042Z,8.22
2022-12-25T09:08:17.874Z,8.15
2022-12-25T09:13:17.932Z,8.33
2022-12-25T09:18:17.657Z,8.18
2022-12-25T09:23:17.699Z,8.62
2022-12-25T09:28:17.601Z,8.47
2022-12-25T09:33:20.880Z,8.96
2022-12-25T09:38:17.417Z,8.97
2022-12-25T09:43:17.420Z,9.56
2022-12-25T09:48:17.279Z,9.93
2022-12-25T09:53:17.262Z,10.09
2022-12-25T09:58:24.528Z,10.96
2022-12-25T10:03:24.956Z,11.01
2022-12-25T10:08:17.024Z,11.27
2022-12-25T10:13:17.091Z,11.43
2022-12-25T10:18:24.316Z,11.53
2022-12-25T10:23:23.839Z,11.53
2022-12-25T10:28:24.336Z,11.17
2022-12-25T10:33:28.890Z,11.21
2022-12-25T10:38:16.642Z,10.92
2022-12-25T10:43:25.580Z,11.90
2022-12-25T10:48:16.504Z,12.63
2022-12-25T10:53:16.472Z,12.70
2022-12-25T10:58:16.387Z,12.30
2022-12-25T11:03:16.539Z,12.52
2022-12-25T11:08:16.243Z,12.74
2022-12-25T11:13:16.275Z,12.45
2022-12-25T11:18:16.112Z,12.87
2022-12-25T11:23:16.322Z,13.21
2022-12-25T11:28:15.986Z,13.40
2022-12-25T11:33:19.045Z,13.20
2022-12-25T11:38:15.856Z,13.09
2022-12-25T11:43:17.130Z,13.67
2022-12-25T11:48:15.742Z,13.37
2022-12-25T11:53:15.724Z,13.44
2022-12-25T11:58:15.636Z,13.32
2022-12-25T12:03:15.674Z,12.96
2022-12-25T12:08:15.472Z,13.12
2022-12-25T12:13:15.420Z,13.32
2022-12-25T12:18:15.397Z,13.61
2022-12-25T12:23:15.336Z,13.51
2022-12-25T12:28:15.190Z,13.27
2022-12-25T12:33:18.188Z,13.27
2022-12-25T12:38:15.065Z,12.81
2022-12-25T12:43:15.138Z,13.14
2022-12-25T12:48:14.963Z,13.09
2022-12-25T12:53:15.644Z,13.24
2022-12-25T12:58:14.840Z,13.29
2022-12-25T13:03:22.790Z,13.20
2022-12-25T13:08:14.801Z,12.66
2022-12-25T13:13:14.665Z,12.97
2022-12-25T13:18:14.685Z,12.74
2022-12-25T13:23:14.536Z,12.96
2022-12-25T13:28:14.440Z,12.49
2022-12-25T13:33:17.607Z,12.63
2022-12-25T13:38:14.577Z,12.41
2022-12-25T13:43:14.491Z,12.71
2022-12-25T13:48:21.828Z,12.70
2022-12-25T13:53:14.171Z,12.62
2022-12-25T13:58:14.163Z,12.71
2022-12-25T14:03:14.080Z,12.56
2022-12-25T14:08:21.855Z,12.92
2022-12-25T14:13:13.862Z,12.52
2022-12-25T14:18:13.800Z,12.51
2022-12-25T14:23:13.729Z,12.57
2022-12-25T14:28:13.717Z,12.77
2022-12-25T14:33:16.784Z,12.81
2022-12-25T14:38:13.607Z,12.60
2022-12-25T14:43:13.505Z,13.00
2022-12-25T14:48:24.961Z,13.32
2022-12-25T14:53:13.385Z,12.81
2022-12-25T14:58:13.328Z,12.92
2022-12-25T15:03:13.503Z,12.92
2022-12-25T15:08:13.324Z,12.64
2022-12-25T15:13:23.690Z,12.62
2022-12-25T15:18:20.560Z,12.60
2022-12-25T15:23:21.215Z,12.56
2022-12-25T15:28:13.249Z,12.27
2022-12-25T15:33:16.176Z,12.31
2022-12-25T15:38:12.825Z,12.05
2022-12-25T15:43:38.966Z,12.45
2022-12-25T15:48:13.763Z,12.52
2022-12-25T15:53:12.563Z,12.48
2022-12-25T15:58:12.546Z,12.46
2022-12-25T16:03:12.625Z,12.46
2022-12-25T16:08:12.571Z,12.74
2022-12-25T16:13:12.488Z,12.84
2022-12-25T16:18:12.484Z,12.84
2022-12-25T16:23:12.178Z,12.93
2022-12-25T16:28:12.177Z,12.63
2022-12-25T16:33:15.064Z,12.54
2022-12-25T16:38:11.978Z,12.37
2022-12-25T16:43:11.981Z,12.45
2022-12-25T16:48:11.802Z,12.39
2022-12-25T16:53:11.877Z,12.37
2022-12-25T16:58:18.758Z,12.82
2022-12-25T17:03:11.781Z,13.04
2022-12-25T17:08:11.672Z,13.30
2022-12-25T17:13:11.488Z,12.99
2022-12-25T17:18:11.621Z,13.09
2022-12-25T17:23:11.540Z,13.07
2022-12-25T17:28:11.475Z,13.49
2022-12-25T17:33:14.307Z,13.41
2022-12-25T17:38:11.208Z,13.21
2022-12-25T17:43:15.782Z,13.30
2022-12-25T17:48:12.335Z,13.27
2022-12-25T17:53:11.251Z,13.22
2022-12-25T17:58:10.964Z,13.37
2022-12-25T18:03:12.060Z,13.25
2022-12-25T18:08:11.282Z,13.47
2022-12-25T18:16:08.619Z,13.70
2022-12-25T18:21:08.323Z,13.33
2022-12-25T18:26:08.403Z,13.47
2022-12-25T18:31:08.291Z,13.24
2022-12-25T18:36:08.315Z,13.21
2022-12-25T18:43:02.764Z,13.44
2022-12-25T18:47:55.742Z,13.49
2022-12-25T18:52:54.818Z,13.61
2022-12-25T18:57:54.583Z,13.17
2022-12-25T19:02:54.558Z,13.30
2022-12-25T19:07:54.392Z,13.61
2022-12-25T19:12:54.545Z,13.67
2022-12-25T19:17:54.498Z,13.80
2022-12-25T19:22:54.173Z,13.54
2022-12-25T19:27:54.257Z,13.61
2022-12-25T19:32:57.262Z,13.89
2022-12-25T19:37:54.038Z,13.21
2022-12-25T19:42:54.119Z,13.44
2022-12-25T20:14:07.065Z,13.80
2022-12-25T20:19:06.847Z,13.59
2022-12-25T20:24:14.271Z,13.94
2022-12-25T20:34:44.402Z,13.51
2022-12-25T20:39:44.179Z,13.62
2022-12-25T20:44:44.016Z,13.67
2022-12-25T20:49:43.928Z,13.74
2022-12-25T20:54:43.916Z,13.76
2022-12-25T20:59:44.084Z,13.49
2022-12-25T21:04:47.708Z,13.70
2022-12-25T21:09:44.808Z,13.49
2022-12-25T21:14:43.599Z,13.41
2022-12-25T21:19:43.557Z,13.44
2022-12-25T21:24:46.927Z,13.07
2022-12-25T21:29:43.421Z,12.99
2022-12-25T21:34:43.596Z,13.00
2022-12-25T21:39:43.385Z,12.85
2022-12-25T21:44:43.319Z,13.11
2022-12-25T21:49:43.451Z,12.85
2022-12-25T21:54:43.151Z,12.82
2022-12-25T21:59:43.132Z,13.14
2022-12-25T22:04:43.143Z,13.03
2022-12-25T22:09:42.935Z,13.02
2022-12-25T22:14:51.144Z,13.21
2022-12-25T22:19:43.867Z,13.07
2022-12-25T22:24:46.032Z,12.96
2022-12-25T22:31:47.028Z,12.85
2022-12-25T22:36:53.270Z,12.99
2022-12-25T22:41:49.462Z,13.38
2022-12-25T22:46:42.316Z,12.81
2022-12-25T22:51:46.404Z,12.96
2022-12-25T22:56:42.229Z,12.81
2022-12-25T23:03:32.115Z,12.89
2022-12-25T23:08:32.048Z,12.69
2022-12-25T23:13:31.824Z,12.33
2022-12-25T23:18:31.789Z,12.64
2022-12-25T23:23:31.736Z,12.89
2022-12-25T23:28:31.489Z,12.56
2022-12-25T23:33:31.684Z,12.75
2022-12-25T23:38:31.384Z,12.63
2022-12-25T23:43:31.358Z,12.87
2022-12-25T23:48:31.334Z,12.54
2022-12-25T23:53:34.218Z,12.70
2022-12-25T23:58:31.229Z,12.63
